San Juan Capistrano, CA

5:33 PM PDT on August 23, 2017 (GMT -0700)
Las Brisas - Mission Area | | Change Station

Elev 210 ft 33.51 °N, 117.66 °W | Updated 4 seconds ago

Mostly Cloudy
Mostly Cloudy
72.0 °F
Feels Like 73 °F
N
2.9
Wind Variable Wind from SSW
Gusts 4.9 mph

Today
High -- | Low -- °F
--% Chance of Precip.
Yesterday
High -- | Low -- °F
Precip. -- in
Pressure 29.90 in
Visibility 10.0 miles
Clouds Few 1900 ft
Heat Index 73 °F
Dew Point 65 °F
Humidity 79%
Rainfall 0.00 in
Snow Depth Not available.
6:18 AM 7:26 PM
Waxing Crescent, 6% visible
METAR KSNA 232353Z 23007KT 10SM FEW019 22/17 A2991 RMK AO2 SLP125 T02220167 10244 20217 56013
Pressure 29.90 in
Visibility 10.0 miles
Clouds Few 1900 ft
Heat Index 73 °F
Dew Point 65 °F
Humidity 79%
Rainfall 0.00 in
Snow Depth Not available.
6:18 AM 7:26 PM
Waxing Crescent, 6% visible
METAR KSNA 232353Z 23007KT 10SM FEW019 22/17 A2991 RMK AO2 SLP125 T02220167 10244 20217 56013

Get Severe Weather Alerts

Thanks for signing up!

Be on the lookout for a verification email in your inbox.

You'll start receiving the daily forecast at 6 AM.

×

10-Day Weather Forecast

Almanac

Astronomy

Aug. 23, 2017 Rise Set
Actual Time
Civil Twilight
Nautical Twilight
Astronomical Twilight
Moon
Length of Visible Light
Length of Day
Tomorrow will be .
, % of the Moon is Illuminated

Today's Extremes

State Highs State Lows

Community

WunderPhotos

Category 6

Welcome to Category 6. This is the collective home for Weather Underground's featured writeups by Dr. Jeff Masters (right), Bob Henson (left), Chris Burt, and other regular contributors.

Nearby

Air Quality

  Air Quality AQ Index Pollutant
Not available.

Snow Depth

Station Depth Elevation

Earthquake Activity

City Distance Mag. Time & Date
Minimum magnitude displayed is 2.5.

Coastal Water Temperatures

Place Temperature

Stations

Nearby Weather Stations

Station Location Temp. Windchill Dew Point Humidity Wind Precip. Elev Updated Type
                   

Watches & Warnings

There are currently no watches in effect.